Survey, Nebraska
Current Conditions -  °F | °C
As of 1:53 PM on Thursday 23 Oct 2014 (Local Time) from KAIA Reporting Station
Clear Clear  
Wind Chill: 68°   Ceiling: Unl
Heat Index: 68°   Visibility: 10mi
Dew Point: 32°   Wind: 18mph
Humidity: 26%   Direction: 250°WSW
Pressure: 30"   Gusts: 26mph
Location:  41.9086°N, 101.954°W
Report Text: KAIA 231953Z AUTO 25016G23KT 10SM CLR 20/00 A3000 RMK AO2 PK WND 25029/1900 SLP154 T02000000
Loading
Personal Weather Stations






























Interactive Weather Map
Tropical Storm Tracking
New forecast layout! Learn more

10-Day Weather Forecast

Advertisements
Track Severe Weather on mobile